createdAt,value
2019-05-02T00:00:44.227Z,43.83
2019-05-02T00:03:13.627Z,41.70
2019-05-02T00:06:24.521Z,43.47
2019-05-02T00:11:33.578Z,35.80
2019-05-02T00:14:13.926Z,37.13
2019-05-02T00:19:25.119Z,44.20
2019-05-02T00:21:54.598Z,43.07
2019-05-02T00:24:23.939Z,48.03
2019-05-02T00:26:56.218Z,42.73
2019-05-02T00:29:29.687Z,51.97
2019-05-02T00:32:01.102Z,36.90
2019-05-02T00:34:49.524Z,39.47
2019-05-02T00:37:24.387Z,51.17
2019-05-02T00:40:09.418Z,44.37
2019-05-02T00:42:38.765Z,46.83
2019-05-02T00:45:08.157Z,49.13
2019-05-02T00:47:56.870Z,47.90
2019-05-02T00:53:22.109Z,42.60
2019-05-02T00:55:51.447Z,41.40
2019-05-02T00:58:20.797Z,45.57
2019-05-02T01:01:09.237Z,37.03
2019-05-02T01:07:14.900Z,41.63
2019-05-02T01:12:32.612Z,64.33
2019-05-02T01:15:03.438Z,48.50
2019-05-02T01:17:38.532Z,47.83
2019-05-02T01:23:42.231Z,58.90
2019-05-02T01:26:11.568Z,64.03
2019-05-02T01:29:00.026Z,50.37
2019-05-02T01:31:49.861Z,47.57
2019-05-02T01:34:43.824Z,47.53
2019-05-02T01:37:32.274Z,53.60
2019-05-02T01:40:01.616Z,68.33
2019-05-02T01:42:39.589Z,47.53
2019-05-02T01:45:21.087Z,81.03
2019-05-02T01:47:50.352Z,84.07
2019-05-02T01:50:38.797Z,105.07
2019-05-02T01:53:08.134Z,68.37
2019-05-02T01:58:20.752Z,58.80
2019-05-02T02:01:07.976Z,63.23
2019-05-02T02:03:56.412Z,43.03
2019-05-02T02:06:25.748Z,47.30
2019-05-02T02:08:55.153Z,41.30
2019-05-02T02:11:28.435Z,42.17
2019-05-02T02:14:18.227Z,43.13
2019-05-02T02:16:44.521Z,38.00
2019-05-02T02:22:13.418Z,45.10
2019-05-02T02:27:38.227Z,34.67
2019-05-02T02:30:47.495Z,41.07
2019-05-02T02:33:16.886Z,45.87
2019-05-02T02:35:50.404Z,43.73
2019-05-02T02:38:36.351Z,48.77
2019-05-02T02:41:06.373Z,38.07
2019-05-02T02:46:45.415Z,41.20
2019-05-02T02:49:21.409Z,41.93
2019-05-02T02:52:06.844Z,40.60
2019-05-02T02:54:43.390Z,49.20
2019-05-02T02:57:27.965Z,39.13
2019-05-02T03:00:06.732Z,37.43
2019-05-02T03:02:35.307Z,35.10
2019-05-02T03:05:27.754Z,31.87
2019-05-02T03:08:15.783Z,36.47
2019-05-02T03:10:46.654Z,43.83
2019-05-02T03:14:06.073Z,52.00
2019-05-02T03:19:27.130Z,37.57
2019-05-02T03:22:00.844Z,40.83
2019-05-02T03:30:50.638Z,41.83
2019-05-02T03:36:53.758Z,44.23
2019-05-02T03:39:23.258Z,38.10
2019-05-02T03:44:56.028Z,44.77
2019-05-02T03:50:35.294Z,42.47
2019-05-02T03:53:09.277Z,41.63
2019-05-02T03:55:38.621Z,46.13
2019-05-02T03:58:14.321Z,45.93
2019-05-02T04:00:48.248Z,35.53
2019-05-02T04:06:21.385Z,52.43
2019-05-02T04:09:00.139Z,39.17
2019-05-02T04:11:38.956Z,38.67
2019-05-02T04:14:17.437Z,38.60
2019-05-02T04:16:55.309Z,44.13
2019-05-02T04:20:09.465Z,35.77
2019-05-02T04:22:54.096Z,35.40
2019-05-02T04:25:42.801Z,40.17
2019-05-02T04:28:14.371Z,41.10
2019-05-02T04:30:51.310Z,35.77
2019-05-02T04:33:29.059Z,49.80
2019-05-02T04:36:13.654Z,42.70
2019-05-02T04:38:47.686Z,37.57
2019-05-02T04:41:28.267Z,36.60
2019-05-02T04:43:57.829Z,38.43
2019-05-02T04:46:31.434Z,39.10
2019-05-02T04:49:09.181Z,46.03
2019-05-02T04:51:50.654Z,45.07
2019-05-02T04:54:25.830Z,42.67
2019-05-02T04:56:58.969Z,41.30
2019-05-02T04:59:39.233Z,42.53
2019-05-02T05:02:13.609Z,66.73
2019-05-02T05:04:48.630Z,52.80
2019-05-02T05:07:40.822Z,56.27
2019-05-02T05:10:09.516Z,43.53
2019-05-02T05:12:41.837Z,41.80
2019-05-02T05:15:38.339Z,37.60
2019-05-02T05:18:10.613Z,45.20
2019-05-02T05:20:52.940Z,43.17
2019-05-02T05:26:12.543Z,48.70
2019-05-02T05:28:44.413Z,43.93
2019-05-02T05:31:24.086Z,54.20
2019-05-02T05:33:58.952Z,37.03
2019-05-02T05:36:32.687Z,43.93
2019-05-02T05:39:18.431Z,44.57
2019-05-02T05:41:52.186Z,44.27
2019-05-02T05:44:39.881Z,42.40
2019-05-02T05:47:17.577Z,42.30
2019-05-02T05:49:52.193Z,48.90
2019-05-02T05:52:33.075Z,46.50
2019-05-02T05:55:08.042Z,60.10
2019-05-02T05:57:38.456Z,63.33
2019-05-02T06:03:17.760Z,44.53
2019-05-02T06:06:09.757Z,46.13
2019-05-02T06:08:42.692Z,48.17
2019-05-02T06:11:19.987Z,54.03
2019-05-02T06:13:53.999Z,51.30
2019-05-02T06:16:23.333Z,38.70
2019-05-02T06:18:52.667Z,48.20
2019-05-02T06:21:22.007Z,46.43
2019-05-02T06:23:51.335Z,44.10
2019-05-02T06:26:26.023Z,53.83
2019-05-02T06:28:55.365Z,55.67
2019-05-02T06:31:24.700Z,54.80
2019-05-02T06:34:13.121Z,52.40
2019-05-02T06:36:42.468Z,46.03
2019-05-02T06:39:11.874Z,36.87
2019-05-02T06:41:42.848Z,42.00
2019-05-02T06:47:36.047Z,39.90
2019-05-02T06:53:18.231Z,46.67
2019-05-02T06:55:47.563Z,42.93
2019-05-02T06:58:16.906Z,47.93
2019-05-02T07:00:56.777Z,40.67
2019-05-02T07:03:22.547Z,45.73
2019-05-02T07:05:52.059Z,59.67
2019-05-02T07:08:21.419Z,63.90
2019-05-02T07:10:50.737Z,44.00
2019-05-02T07:13:20.069Z,50.87
2019-05-02T07:16:10.531Z,54.07
2019-05-02T07:21:58.507Z,44.27
2019-05-02T07:24:43.511Z,41.43
2019-05-02T07:27:12.945Z,41.67
2019-05-02T07:29:42.267Z,41.57
2019-05-02T07:35:27.675Z,47.70
2019-05-02T07:38:09.260Z,40.27
2019-05-02T07:43:21.361Z,46.47
2019-05-02T07:46:08.887Z,47.50
2019-05-02T07:48:54.515Z,43.87
2019-05-02T07:51:22.651Z,36.03
2019-05-02T07:54:31.681Z,42.10
2019-05-02T07:57:02.417Z,44.33
2019-05-02T08:03:10.991Z,43.90
2019-05-02T08:05:40.334Z,49.43
2019-05-02T08:08:15.604Z,38.60
2019-05-02T08:10:44.943Z,39.53
2019-05-02T08:13:17.554Z,38.77
2019-05-02T08:15:52.391Z,41.83
2019-05-02T08:18:30.283Z,39.27
2019-05-02T08:21:04.704Z,42.80
2019-05-02T08:23:34.038Z,42.53
2019-05-02T08:26:03.369Z,52.13
2019-05-02T08:28:57.585Z,38.13
2019-05-02T08:31:30.037Z,48.10
2019-05-02T08:37:12.603Z,42.30
2019-05-02T08:39:41.936Z,44.80
2019-05-02T08:42:32.593Z,40.80
2019-05-02T08:48:27.336Z,34.17
2019-05-02T08:50:56.666Z,53.03
2019-05-02T08:53:26.014Z,43.10
2019-05-02T08:55:55.343Z,35.60
2019-05-02T08:58:24.694Z,50.40
2019-05-02T09:00:54.024Z,45.23
2019-05-02T09:03:23.357Z,47.97
2019-05-02T09:06:06.064Z,47.67
2019-05-02T09:08:35.261Z,42.53
2019-05-02T09:11:14.207Z,42.10
2019-05-02T09:14:05.624Z,49.63
2019-05-02T09:16:34.963Z,48.67
2019-05-02T09:19:26.456Z,46.83
2019-05-02T09:21:59.602Z,55.97
2019-05-02T09:24:28.938Z,53.50
2019-05-02T09:26:58.268Z,44.00
2019-05-02T09:29:47.037Z,43.20
2019-05-02T09:32:17.065Z,44.60
2019-05-02T09:34:56.725Z,45.73
2019-05-02T09:37:29.208Z,47.80
2019-05-02T09:39:58.551Z,48.20
2019-05-02T09:42:27.880Z,40.03
2019-05-02T09:44:57.216Z,43.47
2019-05-02T09:47:33.221Z,60.07
2019-05-02T09:50:29.440Z,47.73
2019-05-02T09:52:58.769Z,47.27
2019-05-02T09:55:28.391Z,51.13
2019-05-02T09:57:57.651Z,40.77
2019-05-02T10:03:29.243Z,52.47
2019-05-02T10:05:58.591Z,40.60
2019-05-02T10:08:28.065Z,37.23
2019-05-02T10:13:37.691Z,40.57
2019-05-02T10:16:07.085Z,41.47
2019-05-02T10:18:49.064Z,38.47
2019-05-02T10:21:18.394Z,38.00
2019-05-02T10:23:53.683Z,37.80
2019-05-02T10:26:20.150Z,42.07
2019-05-02T10:28:51.226Z,33.40
2019-05-02T10:31:21.824Z,29.23
2019-05-02T10:33:52.932Z,25.80
2019-05-02T10:36:23.971Z,40.40
2019-05-02T10:38:58.863Z,41.17
2019-05-02T10:41:24.515Z,41.53
2019-05-02T10:43:57.693Z,34.43
2019-05-02T10:46:27.886Z,35.97
2019-05-02T10:49:01.858Z,38.23
2019-05-02T10:51:34.510Z,31.70
2019-05-02T10:54:05.580Z,36.73
2019-05-02T10:56:34.922Z,40.70
2019-05-02T10:59:04.496Z,46.40
2019-05-02T11:01:35.616Z,39.00
2019-05-02T11:04:06.727Z,55.87
2019-05-02T11:06:37.146Z,33.90
2019-05-02T11:09:12.028Z,49.90
2019-05-02T11:11:42.519Z,43.60
2019-05-02T11:14:13.611Z,41.47
2019-05-02T11:16:44.594Z,45.60
2019-05-02T11:19:15.564Z,50.10
2019-05-02T11:21:55.381Z,44.47
2019-05-02T11:24:16.229Z,43.80
2019-05-02T11:26:45.575Z,44.60
2019-05-02T11:29:14.907Z,43.13
2019-05-02T11:31:44.460Z,45.50
2019-05-02T11:34:14.275Z,42.77
2019-05-02T11:36:43.615Z,39.77
2019-05-02T11:39:19.661Z,42.87
2019-05-02T11:41:44.123Z,39.83
2019-05-02T11:44:13.472Z,41.80
2019-05-02T11:46:46.784Z,40.50
2019-05-02T11:49:13.843Z,46.47
2019-05-02T11:51:47.183Z,39.53
2019-05-02T11:54:14.227Z,37.13
2019-05-02T11:56:48.887Z,31.73
2019-05-02T11:59:15.074Z,33.73
2019-05-02T12:01:56.765Z,44.23
2019-05-02T12:04:17.141Z,44.07
2019-05-02T12:06:50.041Z,42.37
2019-05-02T12:09:18.118Z,37.67
2019-05-02T12:11:55.033Z,40.40
2019-05-02T12:14:18.841Z,40.10
2019-05-02T12:16:48.177Z,42.10
2019-05-02T12:19:17.514Z,44.13
2019-05-02T12:21:55.246Z,47.67
2019-05-02T12:24:25.458Z,39.37
2019-05-02T12:26:54.799Z,40.03
2019-05-02T12:29:24.124Z,37.53
2019-05-02T12:31:56.371Z,37.57
2019-05-02T12:34:24.608Z,32.43
2019-05-02T12:36:53.954Z,31.30
2019-05-02T12:39:23.282Z,33.93
2019-05-02T12:41:53.606Z,37.33
2019-05-02T12:44:23.617Z,31.23
2019-05-02T12:46:52.952Z,40.40
2019-05-02T12:49:27.547Z,28.20
2019-05-02T12:51:53.322Z,32.57
2019-05-02T12:54:22.663Z,32.23
2019-05-02T12:56:52.865Z,41.03
2019-05-02T12:59:22.621Z,30.57
2019-05-02T13:01:52.086Z,30.57
2019-05-02T13:04:22.947Z,27.47
2019-05-02T13:06:53.103Z,23.77
2019-05-02T13:09:23.416Z,25.03
2019-05-02T13:12:13.175Z,37.50
2019-05-02T13:14:42.382Z,31.10
2019-05-02T13:17:12.067Z,36.33
2019-05-02T13:19:55.400Z,30.93
2019-05-02T13:22:14.148Z,25.63
2019-05-02T13:24:46.889Z,26.70
2019-05-02T13:27:17.099Z,33.00
2019-05-02T13:29:47.639Z,27.50
2019-05-02T13:32:24.699Z,27.53
2019-05-02T13:35:02.082Z,37.27
2019-05-02T13:37:31.804Z,24.70
2019-05-02T13:40:12.074Z,25.53
2019-05-02T13:42:41.879Z,25.73
2019-05-02T13:45:22.086Z,28.07
2019-05-02T13:47:51.900Z,21.60
2019-05-02T13:50:22.312Z,27.77
2019-05-02T13:52:57.370Z,36.30
2019-05-02T13:55:27.412Z,26.43
2019-05-02T13:57:56.757Z,30.47
2019-05-02T14:00:31.929Z,25.07
2019-05-02T14:03:02.818Z,27.80
2019-05-02T14:05:32.247Z,25.70
2019-05-02T14:08:18.463Z,21.80
2019-05-02T14:11:07.477Z,29.43
2019-05-02T14:13:37.293Z,19.13
2019-05-02T14:16:06.792Z,24.23
2019-05-02T14:18:36.139Z,19.87
2019-05-02T14:21:05.476Z,20.57
2019-05-02T14:23:34.808Z,23.07
2019-05-02T14:26:04.223Z,22.67
2019-05-02T14:28:36.318Z,23.40
2019-05-02T14:31:04.583Z,24.30
2019-05-02T14:33:35.583Z,27.20
2019-05-02T14:36:04.916Z,28.20
2019-05-02T14:38:34.254Z,33.20
2019-05-02T14:41:05.231Z,37.80
2019-05-02T14:43:53.336Z,41.43
2019-05-02T14:46:28.786Z,39.23
2019-05-02T14:48:55.558Z,46.47
2019-05-02T14:51:27.797Z,35.73
2019-05-02T14:53:57.514Z,36.97
2019-05-02T14:56:32.899Z,36.43
2019-05-02T14:59:02.731Z,47.10
2019-05-02T15:01:32.294Z,36.47
2019-05-02T15:04:04.102Z,36.67
2019-05-02T15:06:33.837Z,39.67
2019-05-02T15:09:04.673Z,41.67
2019-05-02T15:11:34.965Z,42.33
2019-05-02T15:14:04.593Z,35.50
2019-05-02T15:16:42.192Z,37.53
2019-05-02T15:19:05.139Z,45.07
2019-05-02T15:21:47.049Z,45.97
2019-05-02T15:24:14.369Z,48.33
2019-05-02T15:26:43.713Z,40.10
2019-05-02T15:29:19.776Z,41.90
2019-05-02T15:31:48.189Z,36.93
2019-05-02T15:34:22.722Z,65.33
2019-05-02T15:36:52.709Z,34.87
2019-05-02T15:41:53.204Z,35.57
2019-05-02T15:44:23.378Z,43.00
2019-05-02T15:46:53.585Z,31.70
2019-05-02T15:49:22.930Z,39.37
2019-05-02T15:51:52.497Z,33.80
2019-05-02T15:54:22.725Z,35.10
2019-05-02T15:57:00.633Z,30.90
2019-05-02T15:59:37.728Z,37.60
2019-05-02T16:02:07.072Z,24.23
2019-05-02T16:04:41.763Z,48.87
2019-05-02T16:07:12.134Z,26.60
2019-05-02T16:09:42.155Z,24.53
2019-05-02T16:12:12.264Z,23.83
2019-05-02T16:14:42.443Z,24.13
2019-05-02T16:17:12.647Z,25.03
2019-05-02T16:19:43.778Z,21.87
2019-05-02T16:22:14.759Z,21.13
2019-05-02T16:24:48.710Z,22.10
2019-05-02T16:27:16.490Z,19.93
2019-05-02T16:29:46.291Z,19.57
2019-05-02T16:32:17.413Z,31.97
2019-05-02T16:34:54.191Z,23.60
2019-05-02T16:37:22.659Z,20.40
2019-05-02T16:39:52.408Z,17.00
2019-05-02T16:42:22.749Z,22.20
2019-05-02T16:44:54.832Z,25.30
2019-05-02T16:47:23.391Z,22.87
2019-05-02T16:49:56.290Z,31.57
2019-05-02T16:52:23.782Z,25.73
2019-05-02T16:54:53.419Z,19.57
2019-05-02T16:57:23.871Z,20.47
2019-05-02T17:00:00.976Z,31.03
2019-05-02T17:02:24.328Z,32.03
2019-05-02T17:04:54.602Z,26.43
2019-05-02T17:07:26.064Z,24.27
2019-05-02T17:09:59.754Z,28.70
2019-05-02T17:12:31.761Z,25.47
2019-05-02T17:15:19.123Z,31.03
2019-05-02T17:17:48.472Z,31.57
2019-05-02T17:20:18.043Z,26.87
2019-05-02T17:22:50.198Z,28.50
2019-05-02T17:25:18.425Z,24.70
2019-05-02T17:27:47.792Z,23.60
2019-05-02T17:30:17.921Z,28.97
2019-05-02T17:32:47.268Z,32.87
2019-05-02T17:35:18.467Z,27.27
2019-05-02T17:37:49.110Z,26.40
2019-05-02T17:40:24.433Z,31.00
2019-05-02T17:42:57.148Z,25.37
2019-05-02T17:45:24.050Z,28.23
2019-05-02T17:47:53.321Z,31.00
2019-05-02T17:50:33.508Z,28.00
2019-05-02T17:53:04.486Z,34.83
2019-05-02T17:55:40.235Z,28.30
2019-05-02T17:58:12.528Z,34.50
2019-05-02T18:00:38.621Z,28.63
2019-05-02T18:03:08.025Z,36.27
2019-05-02T18:05:37.370Z,37.30
2019-05-02T18:08:10.891Z,45.00
2019-05-02T18:10:37.883Z,45.40
2019-05-02T18:13:07.234Z,40.83
2019-05-02T18:15:36.569Z,40.10
2019-05-02T18:18:07.850Z,35.80
2019-05-02T18:20:41.520Z,47.63
2019-05-02T18:23:08.051Z,41.30
2019-05-02T18:25:37.399Z,40.90
2019-05-02T18:28:06.845Z,34.97
2019-05-02T18:30:36.188Z,41.17
2019-05-02T18:33:07.337Z,44.53
2019-05-02T18:35:37.479Z,44.50
2019-05-02T18:38:07.981Z,41.50
2019-05-02T18:40:37.391Z,54.30
2019-05-02T18:43:06.963Z,51.57
2019-05-02T18:45:36.305Z,48.57
2019-05-02T18:48:06.917Z,53.30
2019-05-02T18:50:44.302Z,54.03
2019-05-02T18:53:11.322Z,54.60
2019-05-02T18:55:42.190Z,50.93
2019-05-02T18:58:12.826Z,57.40
2019-05-02T19:00:42.414Z,52.07
2019-05-02T19:03:16.838Z,62.03
2019-05-02T19:05:43.421Z,48.07
2019-05-02T19:08:13.002Z,47.40
2019-05-02T19:11:01.388Z,43.03
2019-05-02T19:13:13.583Z,47.43
2019-05-02T19:15:46.561Z,44.23
2019-05-02T19:18:18.236Z,56.67
2019-05-02T19:20:57.471Z,42.07
2019-05-02T19:23:25.111Z,57.27
2019-05-02T19:25:54.518Z,54.43
2019-05-02T19:28:33.600Z,48.10
2019-05-02T19:31:05.151Z,47.00
2019-05-02T19:33:31.835Z,48.40
2019-05-02T19:36:02.790Z,45.60
2019-05-02T19:38:34.767Z,35.67
2019-05-02T19:41:08.697Z,39.87
2019-05-02T19:43:35.070Z,39.13
2019-05-02T19:46:04.997Z,43.20
2019-05-02T19:48:36.874Z,49.33
2019-05-02T19:51:10.592Z,48.03
2019-05-02T19:53:36.862Z,53.70
2019-05-02T19:56:06.834Z,53.20
2019-05-02T19:58:41.453Z,61.40
2019-05-02T20:01:07.939Z,61.57
2019-05-02T20:03:37.278Z,67.70
2019-05-02T20:06:06.787Z,77.43
2019-05-02T20:08:36.177Z,74.40
2019-05-02T20:11:05.669Z,78.37
2019-05-02T20:13:35.015Z,81.87
2019-05-02T20:16:09.042Z,85.30
2019-05-02T20:18:43.870Z,100.37
2019-05-02T20:21:27.189Z,88.27
2019-05-02T20:23:51.486Z,90.00
2019-05-02T20:26:22.120Z,86.93
2019-05-02T20:28:52.794Z,100.23
2019-05-02T20:31:22.661Z,99.10
2019-05-02T20:33:52.131Z,95.27
2019-05-02T20:36:22.822Z,106.93
2019-05-02T20:38:52.655Z,97.10
2019-05-02T20:41:22.470Z,89.13
2019-05-02T20:43:51.863Z,109.13
2019-05-02T20:46:21.913Z,101.13
2019-05-02T20:48:52.581Z,113.20
2019-05-02T20:51:22.778Z,126.83
2019-05-02T20:53:52.741Z,97.20
2019-05-02T20:56:23.128Z,108.63
2019-05-02T20:58:53.502Z,111.63
2019-05-02T21:01:22.857Z,107.53
2019-05-02T21:03:52.342Z,102.63
2019-05-02T21:06:37.061Z,106.73
2019-05-02T21:08:59.464Z,120.43
2019-05-02T21:11:29.194Z,116.00
2019-05-02T21:13:58.555Z,97.87
2019-05-02T21:16:28.222Z,104.90
2019-05-02T21:18:57.627Z,126.67
2019-05-02T21:21:27.120Z,103.30
2019-05-02T21:23:56.464Z,100.83
2019-05-02T21:26:25.823Z,128.00
2019-05-02T21:28:55.161Z,119.53
2019-05-02T21:31:24.517Z,124.83
2019-05-02T21:33:53.853Z,120.20
2019-05-02T21:36:23.208Z,114.63
2019-05-02T21:38:52.560Z,131.47
2019-05-02T21:41:22.327Z,109.00
2019-05-02T21:43:51.948Z,126.93
2019-05-02T21:46:22.333Z,124.10
2019-05-02T21:48:52.630Z,133.60
2019-05-02T21:51:26.666Z,110.23
2019-05-02T21:54:02.858Z,116.33
2019-05-02T21:56:48.942Z,121.40
2019-05-02T21:59:18.286Z,136.43
2019-05-02T22:01:53.075Z,131.43
2019-05-02T22:04:22.712Z,116.27
2019-05-02T22:06:52.702Z,132.63
2019-05-02T22:09:23.055Z,122.57
2019-05-02T22:11:52.750Z,132.23
2019-05-02T22:14:22.440Z,146.03
2019-05-02T22:16:52.975Z,122.30
2019-05-02T22:19:22.538Z,143.47
2019-05-02T22:21:52.457Z,108.63
2019-05-02T22:24:42.252Z,138.23
2019-05-02T22:27:18.361Z,128.00
2019-05-02T22:29:47.720Z,132.13
2019-05-02T22:32:17.135Z,138.30
2019-05-02T22:35:26.392Z,122.70
2019-05-02T22:38:14.842Z,127.63
2019-05-02T22:43:39.321Z,124.30
2019-05-02T22:48:49.197Z,147.50
2019-05-02T22:51:18.534Z,108.87
2019-05-02T22:53:47.892Z,131.27
2019-05-02T22:56:17.241Z,111.57
2019-05-02T22:58:46.577Z,113.93
2019-05-02T23:01:15.930Z,108.20
2019-05-02T23:03:45.273Z,108.53
2019-05-02T23:06:14.627Z,112.70
2019-05-02T23:08:44.035Z,107.03
2019-05-02T23:11:13.731Z,105.87
2019-05-02T23:13:43.064Z,99.10
2019-05-02T23:16:12.421Z,112.67
2019-05-02T23:18:42.612Z,116.17
2019-05-02T23:21:22.392Z,113.00
2019-05-02T23:23:52.348Z,104.53
2019-05-02T23:29:22.841Z,96.70
2019-05-02T23:31:52.203Z,113.33
2019-05-02T23:34:23.534Z,112.57
2019-05-02T23:36:57.717Z,114.33
2019-05-02T23:39:27.055Z,92.50
2019-05-02T23:41:56.401Z,115.93
2019-05-02T23:44:26.042Z,115.90
2019-05-02T23:46:55.461Z,115.80
2019-05-02T23:49:24.810Z,95.77
2019-05-02T23:52:13.475Z,99.40
2019-05-02T23:54:50.021Z,111.00
2019-05-02T23:57:23.102Z,101.73
